Time;durP1;ratioP1;P1;durP2;ratioP2;P2;SDS_P1;SDS_P2;PMS_P1;PMS_P2;Temp;Humidity;BMP_temperature;BMP_pressure;BME280_temperature;BME280_humidity;BME280_pressure;Samples;Min_cycle;Max_cycle;Signal;HPM_P1;HPM_P2
2020/12/30 00:02:28;;;;;;;10.70;3.45;;;;;;;10.00;78.47;100458.63;5051030;28;20496;-68
2020/12/30 00:04:55;;;;;;;14.95;3.90;;;;;;;9.82;79.11;100439.03;5052674;28;20033;-70
2020/12/30 00:07:21;;;;;;;10.63;3.55;;;;;;;9.87;79.58;100458.13;5054057;28;20460;-70
2020/12/30 00:09:47;;;;;;;12.00;3.78;;;;;;;9.86;79.53;100466.69;5052028;28;20035;-72
2020/12/30 00:12:13;;;;;;;11.60;4.03;;;;;;;9.87;79.51;100463.28;5053057;28;20060;-69
2020/12/30 00:14:39;;;;;;;16.95;4.45;;;;;;;9.91;79.47;100453.13;5051040;28;20451;-69
2020/12/30 00:17:05;;;;;;;9.95;3.72;;;;;;;9.96;78.96;100447.31;5050427;28;20028;-67
2020/12/30 00:19:30;;;;;;;12.50;3.95;;;;;;;10.06;78.77;100451.13;5052345;28;20049;-68
2020/12/30 00:21:55;;;;;;;16.40;3.75;;;;;;;10.03;78.46;100451.88;5052170;28;20078;-69
2020/12/30 00:24:21;;;;;;;15.95;4.32;;;;;;;9.96;78.67;100459.31;5054160;28;20029;-70
2020/12/30 00:26:46;;;;;;;12.80;3.83;;;;;;;9.95;78.90;100460.16;5053515;28;20049;-69
2020/12/30 00:29:12;;;;;;;8.93;3.40;;;;;;;9.95;78.84;100460.16;5055783;28;20091;-67
2020/12/30 00:31:37;;;;;;;14.52;4.18;;;;;;;9.71;79.49;100450.63;5053848;28;20495;-69
2020/12/30 00:34:03;;;;;;;11.18;3.40;;;;;;;9.83;79.95;100474.31;5054262;28;20408;-69
2020/12/30 00:36:28;;;;;;;10.77;4.00;;;;;;;9.81;79.99;100470.78;5053571;28;20022;-69
2020/12/30 00:38:54;;;;;;;12.95;4.13;;;;;;;9.90;80.08;100472.84;5055783;28;20064;-68
2020/12/30 00:41:19;;;;;;;13.93;3.55;;;;;;;9.59;80.40;100429.50;5055261;28;20024;-69
2020/12/30 00:43:45;;;;;;;11.05;3.65;;;;;;;9.53;80.75;100432.69;5054787;28;20021;-68
2020/12/30 00:46:15;;;;;;;11.38;3.85;;;;;;;9.61;81.42;100454.53;5055642;28;20067;-68
2020/12/30 00:48:40;;;;;;;10.55;3.22;;;;;;;9.52;82.18;100467.00;5053846;28;20029;-69
2020/12/30 00:51:05;;;;;;;14.23;3.55;;;;;;;9.50;82.46;100469.53;5054190;28;20029;-69
2020/12/30 00:53:31;;;;;;;12.50;3.63;;;;;;;9.37;82.58;100444.97;5053000;28;20033;-70
2020/12/30 00:55:56;;;;;;;13.18;3.90;;;;;;;9.54;82.70;100462.81;5055661;28;20079;-69
2020/12/30 00:58:22;;;;;;;10.95;3.45;;;;;;;9.58;82.44;100461.25;5057146;28;20029;-67
2020/12/30 01:00:47;;;;;;;11.57;3.78;;;;;;;9.63;82.15;100459.72;5054577;28;20494;-69
2020/12/30 01:03:13;;;;;;;14.13;3.75;;;;;;;9.44;82.16;100420.31;5068924;28;20495;-70
2020/12/30 01:05:38;;;;;;;14.38;3.97;;;;;;;9.52;81.99;100431.84;5057792;28;20021;-68
2020/12/30 01:08:03;;;;;;;14.30;3.88;;;;;;;9.62;82.25;100453.72;5054938;28;20391;-70
2020/12/30 01:10:29;;;;;;;12.93;4.03;;;;;;;9.62;82.34;100461.44;5056026;28;20021;-69
2020/12/30 01:12:54;;;;;;;13.57;3.65;;;;;;;9.73;82.14;100453.25;5053961;28;20050;-71
2020/12/30 01:15:19;;;;;;;12.27;3.65;;;;;;;9.70;81.84;100457.44;5054082;28;20025;-69
2020/12/30 01:17:45;;;;;;;10.85;3.92;;;;;;;9.76;81.78;100454.25;5052619;28;20028;-67
2020/12/30 01:20:10;;;;;;;11.65;3.47;;;;;;;9.74;81.84;100445.56;5052635;28;20033;-70
2020/12/30 01:22:36;;;;;;;17.80;5.75;;;;;;;9.78;82.22;100444.00;5057099;28;20074;-71
2020/12/30 01:25:01;;;;;;;11.65;3.78;;;;;;;9.75;82.44;100454.19;5054059;28;20045;-69
2020/12/30 01:27:27;;;;;;;8.90;3.65;;;;;;;9.71;83.03;100451.47;5055353;28;20028;-71
2020/12/30 01:29:52;;;;;;;14.95;4.00;;;;;;;9.60;82.74;100408.06;5053500;28;20490;-70
2020/12/30 01:32:17;;;;;;;11.60;4.03;;;;;;;9.83;82.49;100439.91;5055791;28;20472;-71
2020/12/30 01:34:43;;;;;;;13.32;3.90;;;;;;;9.78;82.91;100455.22;5062876;28;20028;-68
2020/12/30 01:37:08;;;;;;;12.82;4.38;;;;;;;9.76;83.12;100443.94;5071325;28;20021;-67
2020/12/30 01:39:34;;;;;;;15.73;3.78;;;;;;;9.72;83.61;100447.22;5059302;28;20035;-71
2020/12/30 01:41:59;;;;;;;15.02;4.47;;;;;;;9.66;83.77;100440.13;5055461;28;20056;-71
2020/12/30 01:44:25;;;;;;;14.02;4.20;;;;;;;9.47;84.22;100409.25;5053520;28;20486;-72
2020/12/30 01:46:51;;;;;;;15.52;4.25;;;;;;;9.72;83.69;100429.19;5053816;28;20465;-69
2020/12/30 01:49:22;;;;;;;11.77;3.72;;;;;;;9.86;83.34;100437.44;5052515;28;20507;-70
2020/12/30 01:51:50;;;;;;;20.30;4.00;;;;;;;9.86;83.40;100438.31;5051689;28;20484;-67
2020/12/30 01:54:17;;;;;;;14.38;4.20;;;;;;;9.85;83.60;100433.97;5054262;28;20024;-67
2020/12/30 01:56:44;;;;;;;17.65;4.47;;;;;;;9.88;83.44;100431.53;5053502;28;20033;-68
2020/12/30 01:59:18;;;;;;;17.70;4.22;;;;;;;9.53;83.21;100369.16;5054757;28;20032;-72
2020/12/30 02:01:47;;;;;;;13.07;4.63;;;;;;;9.92;83.52;100429.06;5054016;28;20563;-69
2020/12/30 02:04:15;;;;;;;10.85;3.78;;;;;;;10.00;82.89;100419.94;5056918;28;20035;-67
2020/12/30 02:06:41;;;;;;;15.43;4.72;;;;;;;9.94;82.27;100393.91;5058716;28;20047;-68
2020/12/30 02:09:06;;;;;;;18.60;4.57;;;;;;;10.13;82.43;100423.84;5058509;28;20032;-69
2020/12/30 02:11:33;;;;;;;16.83;4.22;;;;;;;10.19;82.37;100418.91;5067505;28;20024;-71
2020/12/30 02:14:12;;;;;;;15.07;4.55;;;;;;;10.21;81.85;100414.72;5067770;28;20100;-71
2020/12/30 02:16:52;;;;;;;15.70;5.55;;;;;;;10.25;81.85;100415.72;5067203;28;20078;-70
2020/12/30 02:19:18;;;;;;;15.55;4.40;;;;;;;10.23;82.20;100413.06;5058386;28;20024;-70
2020/12/30 02:21:44;;;;;;;13.80;4.43;;;;;;;10.15;82.17;100417.91;5067167;28;20113;-71
2020/12/30 02:24:24;;;;;;;16.42;4.32;;;;;;;10.13;82.61;100411.84;5067577;28;20099;-70
2020/12/30 02:26:49;;;;;;;13.52;5.35;;;;;;;10.15;82.69;100411.91;5067492;28;20055;-70
2020/12/30 02:29:15;;;;;;;14.02;4.07;;;;;;;10.18;82.62;100412.00;5067185;28;20028;-68
2020/12/30 02:31:40;;;;;;;13.25;4.25;;;;;;;10.12;82.90;100399.78;5068841;28;20396;-70
2020/12/30 02:34:06;;;;;;;12.05;4.05;;;;;;;10.08;83.01;100397.00;5065944;28;20028;-69
2020/12/30 02:36:31;;;;;;;13.30;4.07;;;;;;;10.11;82.93;100408.31;5067953;28;20020;-69
2020/12/30 02:38:57;;;;;;;12.82;4.55;;;;;;;10.17;82.80;100400.81;5062657;28;20031;-71
2020/12/30 02:41:22;;;;;;;21.63;5.38;;;;;;;10.17;82.79;100403.38;5068484;28;20079;-72
2020/12/30 02:43:48;;;;;;;16.45;4.43;;;;;;;10.19;82.55;100406.03;5067236;28;20074;-66
2020/12/30 02:46:14;;;;;;;13.98;4.30;;;;;;;10.12;82.72;100404.03;5067132;28;20032;-77
2020/12/30 02:48:39;;;;;;;10.85;4.15;;;;;;;10.00;82.96;100404.47;5067958;28;20025;-69
2020/12/30 02:51:05;;;;;;;12.85;3.92;;;;;;;9.96;83.36;100400.00;5065865;28;20060;-70
2020/12/30 02:53:31;;;;;;;11.27;3.53;;;;;;;9.85;83.71;100391.84;5068137;28;20021;-70
2020/12/30 02:55:56;;;;;;;11.48;4.38;;;;;;;9.39;85.42;100345.44;5065078;28;20040;-70
2020/12/30 02:58:22;;;;;;;17.90;4.65;;;;;;;9.70;86.36;100387.84;5068586;28;20101;-67
2020/12/30 03:00:47;;;;;;;16.30;4.28;;;;;;;9.79;86.36;100394.19;5067236;28;20119;-68
2020/12/30 03:03:13;;;;;;;17.63;4.45;;;;;;;9.81;86.84;100390.00;5095529;28;20036;-67
2020/12/30 03:05:38;;;;;;;12.90;4.45;;;;;;;9.88;86.67;100390.28;5055656;28;20408;-68
2020/12/30 03:08:04;;;;;;;16.85;5.40;;;;;;;9.93;86.31;100390.47;5055812;28;20029;-67
2020/12/30 03:10:29;;;;;;;14.43;3.80;;;;;;;9.93;86.38;100387.00;5054613;28;20830;-69
2020/12/30 03:12:55;;;;;;;12.60;3.90;;;;;;;9.95;86.35;100390.50;5051277;28;20020;-68
2020/12/30 03:15:20;;;;;;;13.20;4.43;;;;;;;9.99;85.99;100385.53;5051898;28;20472;-70
2020/12/30 03:17:46;;;;;;;17.08;4.13;;;;;;;10.06;85.91;100388.34;5050779;28;20024;-71
2020/12/30 03:20:11;;;;;;;15.43;3.97;;;;;;;10.07;85.54;100388.41;5060506;28;20511;-69
2020/12/30 03:22:36;;;;;;;16.20;3.95;;;;;;;10.04;85.86;100391.75;5067641;28;20027;-67
2020/12/30 03:25:02;;;;;;;17.25;4.25;;;;;;;9.88;86.20;100366.16;5055465;28;20479;-69
2020/12/30 03:27:28;;;;;;;16.90;4.35;;;;;;;10.02;86.62;100383.06;5055568;28;20029;-69
2020/12/30 03:29:53;;;;;;;16.70;4.03;;;;;;;10.07;86.67;100385.81;5051874;28;20389;-69
2020/12/30 03:32:18;;;;;;;19.48;4.22;;;;;;;10.14;86.51;100390.41;5059964;28;20021;-65
2020/12/30 03:34:44;;;;;;;18.50;3.78;;;;;;;10.18;86.04;100400.00;5054179;28;20029;-70
2020/12/30 03:37:10;;;;;;;11.57;3.75;;;;;;;10.16;85.70;100385.28;5051019;28;20037;-73
2020/12/30 03:39:35;;;;;;;17.02;4.30;;;;;;;10.16;85.05;100360.34;5050831;28;20036;-69
2020/12/30 03:42:01;;;;;;;15.32;4.45;;;;;;;10.28;84.79;100379.69;5051055;28;20041;-72
2020/12/30 03:44:26;;;;;;;16.05;4.65;;;;;;;10.30;84.59;100375.47;5051133;28;20025;-69
2020/12/30 03:46:51;;;;;;;17.15;3.63;;;;;;;10.21;84.55;100376.00;5051057;28;20392;-71
2020/12/30 03:49:17;;;;;;;14.48;3.58;;;;;;;9.97;85.51;100373.38;5050791;28;20029;-71
2020/12/30 03:51:42;;;;;;;14.30;3.92;;;;;;;9.82;85.82;100371.09;5050288;28;20446;-66
2020/12/30 03:54:08;;;;;;;15.60;3.83;;;;;;;9.69;86.26;100374.91;5050640;28;20484;-70
2020/12/30 03:56:34;;;;;;;15.15;5.50;;;;;;;9.52;87.75;100375.13;5050630;28;20071;-71
2020/12/30 03:59:00;;;;;;;18.63;3.95;;;;;;;9.40;88.72;100369.50;5050850;28;20040;-71
2020/12/30 04:01:25;;;;;;;14.95;5.03;;;;;;;9.29;89.89;100373.34;5052669;28;20579;-66
2020/12/30 04:03:51;;;;;;;19.80;4.60;;;;;;;9.09;90.25;100341.63;5068202;28;20122;-69
2020/12/30 04:06:16;;;;;;;9.77;4.32;;;;;;;9.15;90.65;100360.75;5053123;28;20025;-69
2020/12/30 04:08:41;;;;;;;20.13;5.43;;;;;;;9.12;91.19;100358.09;5057352;28;20021;-66
2020/12/30 04:11:07;;;;;;;19.60;5.40;;;;;;;8.84;91.59;100322.59;5058309;28;20080;-69
2020/12/30 04:13:32;;;;;;;15.57;4.22;;;;;;;9.02;92.40;100366.22;5054103;28;20021;-69
2020/12/30 04:15:58;;;;;;;16.95;5.13;;;;;;;8.99;92.88;100361.81;5056436;28;20025;-70
2020/12/30 04:18:23;;;;;;;18.00;4.90;;;;;;;9.00;92.51;100357.56;5064308;28;20020;-67
2020/12/30 04:20:48;;;;;;;16.85;4.97;;;;;;;8.87;92.33;100339.03;5069398;28;20028;-69
2020/12/30 04:23:14;;;;;;;27.42;6.20;;;;;;;8.98;92.85;100359.19;5056306;28;20020;-70
2020/12/30 04:25:42;;;;;;;15.05;5.00;;;;;;;8.70;93.16;100311.72;5069090;28;20435;-68
2020/12/30 04:28:08;;;;;;;23.48;5.93;;;;;;;8.89;93.44;100347.69;5053369;28;20029;-69
2020/12/30 04:30:33;;;;;;;18.48;6.03;;;;;;;8.89;93.45;100339.09;5054164;28;20485;-70
2020/12/30 04:32:58;;;;;;;15.65;4.97;;;;;;;8.88;93.54;100333.09;5054341;28;20033;-69
2020/12/30 04:35:24;;;;;;;20.98;6.10;;;;;;;8.92;94.00;100348.63;5053174;28;20510;-69
2020/12/30 04:37:49;;;;;;;18.75;6.00;;;;;;;9.01;93.66;100344.75;5068504;28;20039;-73
2020/12/30 04:40:15;;;;;;;18.67;5.85;;;;;;;9.12;93.68;100354.59;5070223;28;20036;-71
2020/12/30 04:42:41;;;;;;;18.48;6.60;;;;;;;9.10;93.69;100317.59;5068073;28;20032;-70
2020/12/30 04:45:11;;;;;;;18.55;6.80;;;;;;;9.35;93.38;100352.97;5070946;28;20037;-72
2020/12/30 04:47:36;;;;;;;22.85;6.50;;;;;;;9.45;93.00;100355.09;5067208;28;20108;-73
2020/12/30 04:50:04;;;;;;;32.58;9.82;;;;;;;9.53;92.28;100356.28;5062750;28;20471;-71
2020/12/30 04:52:30;;;;;;;25.27;8.15;;;;;;;9.54;91.91;100350.31;5056693;28;20025;-71
2020/12/30 04:54:55;;;;;;;29.90;7.97;;;;;;;9.57;91.55;100356.38;5054652;28;20498;-68
2020/12/30 04:57:51;;;;;;;24.05;7.65;;;;;;;9.40;90.58;100320.53;5059218;28;20029;-69
2020/12/30 05:00:17;;;;;;;25.15;8.15;;;;;;;9.53;90.45;100355.38;5059261;28;20471;-73
2020/12/30 05:02:49;;;;;;;15.60;6.35;;;;;;;9.32;90.40;100322.81;5067014;28;20039;-69
2020/12/30 05:05:16;;;;;;;19.92;6.97;;;;;;;9.25;90.44;100337.97;5055841;28;20486;-73
2020/12/30 05:07:44;;;;;;;16.45;6.45;;;;;;;9.42;90.25;100354.09;5053451;28;20029;-72
2020/12/30 05:10:11;;;;;;;20.95;6.45;;;;;;;9.41;90.14;100342.00;5051668;28;20037;-73
2020/12/30 05:12:37;;;;;;;14.18;5.13;;;;;;;9.37;89.37;100346.16;5052596;28;20190;-72
2020/12/30 05:15:03;;;;;;;15.95;4.65;;;;;;;9.21;89.42;100334.38;5057422;28;20094;-72
2020/12/30 05:17:28;;;;;;;14.80;4.90;;;;;;;9.28;90.45;100346.69;5060415;28;20115;-71
2020/12/30 05:19:54;;;;;;;15.75;4.78;;;;;;;9.26;90.39;100339.72;5064844;28;20037;-69
2020/12/30 05:22:20;;;;;;;18.92;5.10;;;;;;;9.17;90.80;100335.06;5055915;28;20381;-66
2020/12/30 05:24:47;;;;;;;12.80;3.85;;;;;;;9.20;90.84;100336.06;5056697;28;20100;-68
2020/12/30 05:27:14;;;;;;;18.02;5.35;;;;;;;9.15;91.12;100352.19;5055974;28;20068;-71
2020/12/30 05:29:49;;;;;;;17.05;4.53;;;;;;;9.15;91.37;100362.47;5065966;28;20137;-69
2020/12/30 05:32:15;;;;;;;14.30;4.82;;;;;;;9.15;91.54;100360.75;5061377;28;20025;-70
2020/12/30 05:34:40;;;;;;;24.00;7.32;;;;;;;9.20;91.47;100376.41;5065326;28;20471;-75
2020/12/30 05:37:06;;;;;;;16.02;5.72;;;;;;;9.20;91.50;100369.56;5051490;28;20028;-73
2020/12/30 05:39:35;;;;;;;19.35;6.55;;;;;;;9.21;91.74;100367.88;5057330;28;20487;-73
2020/12/30 05:42:17;;;;;;;17.27;5.95;;;;;;;9.26;91.51;100370.63;5069436;28;20399;-70
2020/12/30 05:44:47;;;;;;;15.45;6.82;;;;;;;9.16;91.37;100347.06;5069774;28;20056;-69
2020/12/30 05:47:18;;;;;;;19.45;6.00;;;;;;;9.33;91.28;100370.94;5068933;28;20028;-73
2020/12/30 05:49:48;;;;;;;14.63;5.32;;;;;;;9.31;91.10;100380.31;5068813;28;20542;-71
2020/12/30 05:52:22;;;;;;;19.35;5.57;;;;;;;9.36;90.72;100389.09;5059310;28;20048;-69
2020/12/30 05:54:47;;;;;;;18.20;5.70;;;;;;;9.37;90.70;100396.00;5058162;28;20616;-70
2020/12/30 05:57:39;;;;;;;19.02;5.75;;;;;;;9.50;89.87;100392.22;5056992;28;20120;-70
2020/12/30 06:00:05;;;;;;;15.65;5.47;;;;;;;9.43;90.08;100384.19;5069579;28;20420;-73
2020/12/30 06:02:32;;;;;;;15.55;4.35;;;;;;;9.57;89.98;100410.50;5069671;28;20041;-69
2020/12/30 06:05:08;;;;;;;21.55;5.70;;;;;;;9.64;89.95;100397.06;5069162;28;20032;-70
2020/12/30 06:07:37;;;;;;;19.52;4.78;;;;;;;9.75;89.61;100406.09;5069610;28;20028;-70
2020/12/30 06:10:04;;;;;;;14.20;4.32;;;;;;;9.78;89.47;100395.00;5069120;28;20029;-68
2020/12/30 06:12:37;;;;;;;18.73;5.32;;;;;;;9.74;89.59;100406.91;5069656;28;20060;-73
2020/12/30 06:15:02;;;;;;;13.48;4.38;;;;;;;9.78;89.81;100406.22;5069613;28;20538;-69
2020/12/30 06:17:30;;;;;;;16.55;6.00;;;;;;;9.75;89.70;100395.78;5068433;28;20154;-70
2020/12/30 06:19:56;;;;;;;29.05;8.10;;;;;;;9.78;89.64;100401.06;5068466;28;20039;-73
2020/12/30 06:22:22;;;;;;;13.68;5.13;;;;;;;9.60;89.29;100378.00;5069197;28;20510;-67
2020/12/30 06:24:55;;;;;;;17.98;5.18;;;;;;;9.77;89.27;100417.34;5067068;28;20047;-69
2020/12/30 06:27:23;;;;;;;25.70;5.10;;;;;;;9.77;89.16;100417.34;5066232;28;20056;-69
2020/12/30 06:29:51;;;;;;;17.00;4.70;;;;;;;9.80;88.88;100420.03;5068921;28;20079;-69
2020/12/30 06:32:32;;;;;;;20.42;6.28;;;;;;;9.79;89.32;100422.56;5068832;28;20040;-68
2020/12/30 06:34:58;;;;;;;17.25;6.15;;;;;;;9.69;89.75;100422.22;5069159;28;20040;-69
2020/12/30 06:37:28;;;;;;;21.88;5.25;;;;;;;9.63;90.11;100418.47;5057758;28;20385;-68
2020/12/30 06:40:15;;;;;;;19.42;4.88;;;;;;;9.62;90.51;100430.50;5061357;28;20055;-68
2020/12/30 06:42:41;;;;;;;13.88;5.13;;;;;;;9.58;90.67;100423.44;5060206;28;20096;-68
2020/12/30 06:45:06;;;;;;;19.35;5.90;;;;;;;9.45;90.73;100387.72;5060404;28;20025;-69
2020/12/30 06:47:57;;;;;;;15.32;5.07;;;;;;;9.60;90.79;100415.81;5057237;28;20031;-66
2020/12/30 06:50:23;;;;;;;16.33;4.80;;;;;;;9.52;91.06;100418.94;5058720;28;20392;-68
2020/12/30 06:52:49;;;;;;;12.48;5.05;;;;;;;9.56;91.24;100422.53;5059448;28;20035;-69
2020/12/30 06:55:14;;;;;;;15.63;5.25;;;;;;;9.62;91.09;100437.34;5060577;28;20040;-68
2020/12/30 06:57:44;;;;;;;19.42;5.13;;;;;;;9.55;91.03;100441.38;5061182;28;20036;-68
2020/12/30 07:00:22;;;;;;;18.05;5.28;;;;;;;9.58;91.20;100443.19;5067055;28;20551;-71
2020/12/30 07:03:12;;;;;;;21.67;5.75;;;;;;;9.58;90.98;100435.47;5067036;28;20095;-68
2020/12/30 07:05:37;;;;;;;15.02;5.75;;;;;;;9.70;90.15;100447.13;5064946;28;20029;-69
2020/12/30 07:08:03;;;;;;;14.95;3.90;;;;;;;9.69;89.38;100450.56;5051004;28;20561;-68
2020/12/30 07:10:28;;;;;;;16.00;5.22;;;;;;;9.65;89.25;100433.19;5051032;28;20013;-70
2020/12/30 07:12:54;;;;;;;15.85;5.13;;;;;;;9.86;89.24;100443.47;5051206;28;20105;-71
2020/12/30 07:15:28;;;;;;;21.00;5.13;;;;;;;10.01;88.62;100438.03;5066837;28;20031;-71
2020/12/30 07:17:55;;;;;;;14.60;4.78;;;;;;;10.23;88.01;100445.72;5071034;28;20507;-71
2020/12/30 07:20:21;;;;;;;17.45;5.22;;;;;;;10.37;87.44;100436.84;5070810;28;20028;-69
2020/12/30 07:22:47;;;;;;;17.70;4.45;;;;;;;10.47;87.17;100433.78;5070930;28;20048;-67
2020/12/30 07:25:21;;;;;;;15.55;4.55;;;;;;;10.65;87.14;100437.84;5070966;28;20145;-72
2020/12/30 07:27:46;;;;;;;15.75;4.63;;;;;;;10.82;86.76;100430.72;5053007;28;20071;-68
2020/12/30 07:30:12;;;;;;;18.00;4.40;;;;;;;11.05;85.83;100444.41;5061497;28;20028;-70
2020/12/30 07:32:37;;;;;;;17.38;5.95;;;;;;;10.94;85.53;100384.66;5066236;28;20024;-71
2020/12/30 07:35:06;;;;;;;13.55;4.57;;;;;;;11.30;84.71;100425.47;5068055;28;20028;-70
2020/12/30 07:37:32;;;;;;;13.77;4.35;;;;;;;11.43;84.23;100423.28;5067300;28;20086;-67
2020/12/30 07:39:58;;;;;;;13.90;3.80;;;;;;;11.58;83.84;100425.50;5067365;28;20036;-66
2020/12/30 07:42:24;;;;;;;10.90;3.60;;;;;;;11.72;83.42;100442.31;5068789;28;20024;-72
2020/12/30 07:44:54;;;;;;;12.68;4.20;;;;;;;11.92;82.87;100442.91;5070328;28;20029;-69
2020/12/30 07:47:22;;;;;;;14.20;3.67;;;;;;;12.08;81.60;100439.13;5064828;28;20659;-71
2020/12/30 07:49:48;;;;;;;15.70;3.10;;;;;;;12.21;80.84;100434.31;5058418;28;20123;-70
2020/12/30 07:52:14;;;;;;;16.27;4.00;;;;;;;12.24;79.88;100427.53;5035554;28;20121;-68
2020/12/30 07:54:39;;;;;;;15.43;3.60;;;;;;;12.22;79.94;100436.94;5056792;28;20028;-69
2020/12/30 07:57:10;;;;;;;14.77;4.15;;;;;;;12.25;79.24;100441.34;5054268;28;20028;-69
2020/12/30 07:59:37;;;;;;;16.38;3.88;;;;;;;12.24;79.44;100447.38;5055163;28;20109;-71
2020/12/30 08:02:05;;;;;;;14.40;4.75;;;;;;;12.19;79.76;100452.41;5055970;28;20052;-70
2020/12/30 08:04:33;;;;;;;17.30;5.55;;;;;;;12.18;79.79;100455.81;5060557;28;20472;-71
2020/12/30 08:07:01;;;;;;;20.42;6.38;;;;;;;11.95;79.95;100437.88;5059439;28;20020;-70
2020/12/30 08:09:29;;;;;;;15.15;4.90;;;;;;;11.92;79.52;100431.72;5056182;28;20081;-73
2020/12/30 08:12:04;;;;;;;16.13;3.50;;;;;;;12.08;79.44;100453.78;5060769;28;20044;-73
2020/12/30 08:14:33;;;;;;;14.30;3.95;;;;;;;12.06;79.31;100453.75;5054862;28;20032;-71
2020/12/30 08:17:01;;;;;;;18.15;3.67;;;;;;;12.05;78.76;100444.22;5054788;28;20060;-71
2020/12/30 08:19:33;;;;;;;12.30;4.53;;;;;;;11.97;78.40;100433.66;5053951;28;20434;-70
2020/12/30 08:22:04;;;;;;;19.65;5.43;;;;;;;12.06;78.15;100446.00;5054229;28;20036;-70
2020/12/30 08:24:35;;;;;;;18.05;3.97;;;;;;;12.07;78.39;100441.69;5057412;28;20039;-69
2020/12/30 08:27:00;;;;;;;14.07;4.05;;;;;;;12.15;78.02;100440.22;5057053;28;20551;-70
2020/12/30 08:29:31;;;;;;;19.23;3.95;;;;;;;12.20;77.71;100442.91;5055870;28;20116;-68
2020/12/30 08:32:00;;;;;;;14.00;3.63;;;;;;;12.18;77.53;100442.88;5054564;28;20033;-73
2020/12/30 08:34:32;;;;;;;13.02;3.78;;;;;;;12.20;77.89;100443.81;5055117;28;20044;-70
2020/12/30 08:37:10;;;;;;;13.93;3.20;;;;;;;11.93;78.44;100392.06;5053946;28;20456;-68
2020/12/30 08:39:43;;;;;;;16.17;3.67;;;;;;;11.96;78.11;100376.66;5055841;28;20025;-71
2020/12/30 08:42:24;;;;;;;8.38;3.03;;;;;;;12.23;79.45;100420.59;5055687;28;20065;-71
2020/12/30 08:44:59;;;;;;;15.15;4.15;;;;;;;12.27;79.81;100406.03;5055173;28;20028;-68
2020/12/30 08:47:27;;;;;;;10.15;3.58;;;;;;;12.42;80.05;100408.19;5053889;28;20714;-70
2020/12/30 08:49:54;;;;;;;9.70;3.30;;;;;;;12.38;80.10;100390.81;5054049;28;20033;-70
2020/12/30 08:52:20;;;;;;;13.38;2.90;;;;;;;12.55;79.54;100405.13;5053508;28;20052;-68
2020/12/30 08:54:46;;;;;;;12.80;3.33;;;;;;;12.60;79.43;100408.72;5050797;28;20041;-68
2020/12/30 08:57:18;;;;;;;9.35;2.60;;;;;;;12.61;78.43;100394.03;5056161;28;20112;-69
2020/12/30 08:59:44;;;;;;;12.20;3.33;;;;;;;12.70;78.13;100404.66;5058016;28;20020;-68
2020/12/30 09:02:13;;;;;;;10.48;2.85;;;;;;;12.69;77.92;100394.25;5054613;28;20542;-70
2020/12/30 09:04:54;;;;;;;13.35;2.90;;;;;;;12.82;77.45;100398.91;5053274;28;20028;-70
2020/12/30 09:07:27;;;;;;;6.80;2.22;;;;;;;12.89;77.04;100395.66;5055245;28;20024;-71
2020/12/30 09:10:12;;;;;;;9.38;2.22;;;;;;;13.02;76.52;100398.56;5069391;28;20057;-68
2020/12/30 09:12:39;;;;;;;12.77;2.78;;;;;;;13.04;76.10;100384.81;5054338;28;20029;-70
2020/12/30 09:15:06;;;;;;;12.32;3.10;;;;;;;13.23;76.38;100383.56;5055178;28;20024;-69
2020/12/30 09:17:33;;;;;;;7.22;2.47;;;;;;;13.30;75.94;100381.13;5064128;28;20029;-71
2020/12/30 09:20:11;;;;;;;10.90;2.65;;;;;;;13.29;76.17;100369.88;5061456;28;20029;-69
2020/12/30 09:22:38;;;;;;;11.68;3.08;;;;;;;13.30;76.08;100370.75;5061886;28;20040;-69
2020/12/30 09:25:04;;;;;;;10.00;2.70;;;;;;;13.36;76.37;100366.59;5064468;28;20405;-71
2020/12/30 09:27:33;;;;;;;14.25;3.17;;;;;;;13.39;75.42;100324.31;5059888;28;20024;-71
2020/12/30 09:30:08;;;;;;;5.00;2.30;;;;;;;13.69;74.41;100365.63;5054159;28;20025;-72
2020/12/30 09:32:33;;;;;;;11.15;2.60;;;;;;;13.63;72.96;100355.13;5057093;28;20539;-72
2020/12/30 09:35:00;;;;;;;8.23;2.30;;;;;;;13.58;72.34;100356.75;5064826;28;20119;-69
2020/12/30 09:37:26;;;;;;;8.98;1.98;;;;;;;13.52;72.95;100341.03;5058141;28;20040;-70
2020/12/30 09:40:12;;;;;;;9.35;2.53;;;;;;;13.57;73.07;100345.50;5063810;28;20063;-73
2020/12/30 09:42:39;;;;;;;11.93;3.03;;;;;;;13.56;73.48;100342.88;5068013;28;20020;-69
2020/12/30 09:45:09;;;;;;;9.93;2.88;;;;;;;13.59;74.23;100342.94;5059573;28;20036;-71
2020/12/30 09:47:36;;;;;;;12.65;2.67;;;;;;;13.63;73.54;100333.50;5059651;28;20090;-72
2020/12/30 09:50:03;;;;;;;9.52;2.60;;;;;;;13.69;73.31;100333.63;5060214;28;20569;-70
2020/12/30 09:52:40;;;;;;;8.07;1.95;;;;;;;13.72;72.11;100324.22;5061693;28;20063;-69
2020/12/30 09:55:07;;;;;;;8.75;2.72;;;;;;;13.74;72.09;100319.94;5060516;28;20113;-70
2020/12/30 09:57:34;;;;;;;11.43;2.35;;;;;;;13.71;71.03;100312.06;5061031;28;20035;-70
2020/12/30 10:00:00;;;;;;;9.50;2.40;;;;;;;13.59;70.25;100286.75;5057489;28;20024;-68
2020/12/30 10:02:28;;;;;;;9.52;2.83;;;;;;;13.62;69.76;100282.47;5051817;28;20408;-72
2020/12/30 10:04:54;;;;;;;11.20;2.50;;;;;;;13.83;68.96;100316.66;5058577;28;20029;-71
2020/12/30 10:07:19;;;;;;;8.68;3.00;;;;;;;13.68;69.03;100290.38;5057771;28;20025;-70
2020/12/30 10:09:45;;;;;;;7.72;2.38;;;;;;;13.89;68.63;100302.94;5056163;28;20021;-71
2020/12/30 10:12:10;;;;;;;11.00;3.42;;;;;;;13.99;67.82;100304.00;5060327;28;20464;-74
2020/12/30 10:14:36;;;;;;;10.52;4.03;;;;;;;14.23;67.33;100295.81;5056291;28;20032;-71
2020/12/30 10:17:01;;;;;;;6.63;2.15;;;;;;;14.35;65.65;100285.66;5060444;28;20048;-73
2020/12/30 10:19:27;;;;;;;9.27;2.50;;;;;;;14.47;64.68;100278.94;5056090;28;20071;-70
2020/12/30 10:21:52;;;;;;;7.07;1.85;;;;;;;14.61;65.69;100271.41;5057922;28;20045;-69
2020/12/30 10:24:18;;;;;;;5.88;2.10;;;;;;;14.87;64.28;100279.66;5054740;28;20064;-70
2020/12/30 10:26:43;;;;;;;6.35;2.10;;;;;;;15.02;64.11;100259.09;5097353;28;20044;-69
2020/12/30 10:29:09;;;;;;;7.53;2.47;;;;;;;15.12;62.52;100247.13;5086340;28;20044;-69
2020/12/30 10:31:34;;;;;;;5.68;2.13;;;;;;;15.22;62.09;100235.13;5072024;28;20059;-71
2020/12/30 10:34:00;;;;;;;7.15;1.75;;;;;;;15.18;61.15;100244.59;5068875;28;20036;-71
2020/12/30 10:36:32;;;;;;;7.78;2.20;;;;;;;15.12;61.96;100248.84;5069392;28;20123;-71
2020/12/30 10:39:01;;;;;;;6.63;2.35;;;;;;;15.04;62.50;100241.81;5069149;28;20453;-72
2020/12/30 10:41:27;;;;;;;3.33;1.35;;;;;;;14.97;62.51;100233.91;5069226;28;20028;-71
2020/12/30 10:43:53;;;;;;;6.35;1.90;;;;;;;14.95;63.42;100233.84;5068865;28;20032;-69
2020/12/30 10:46:19;;;;;;;5.25;1.73;;;;;;;14.74;63.64;100217.94;5068795;28;20027;-70
2020/12/30 10:48:48;;;;;;;8.30;1.77;;;;;;;14.83;63.62;100223.28;5069029;28;20045;-71
2020/12/30 10:51:15;;;;;;;5.50;1.45;;;;;;;14.88;64.08;100221.63;5068741;28;20044;-69
2020/12/30 10:53:41;;;;;;;4.18;1.40;;;;;;;15.00;63.73;100207.94;5068954;28;20036;-69
2020/12/30 10:56:11;;;;;;;3.95;1.08;;;;;;;14.98;62.48;100223.50;5068651;28;20035;-71
2020/12/30 10:58:39;;;;;;;8.85;1.83;;;;;;;15.10;62.57;100228.00;5061555;28;20380;-71
2020/12/30 11:01:12;;;;;;;5.00;1.10;;;;;;;15.28;61.24;100223.94;5066646;28;20128;-72
2020/12/30 11:03:39;;;;;;;7.32;2.03;;;;;;;15.44;61.46;100225.00;5056163;28;20025;-68
2020/12/30 11:06:05;;;;;;;8.15;1.88;;;;;;;15.52;61.84;100237.25;5055735;28;20040;-69
2020/12/30 11:08:31;;;;;;;2.45;1.17;;;;;;;15.53;61.17;100225.13;5060368;28;20099;-74
2020/12/30 11:10:58;;;;;;;3.83;1.83;;;;;;;15.63;60.34;100228.72;5063764;28;20032;-68
2020/12/30 11:13:25;;;;;;;8.02;1.70;;;;;;;15.73;60.53;100237.53;5049822;28;20537;-73
2020/12/30 11:15:50;;;;;;;9.60;2.42;;;;;;;15.83;59.86;100231.59;5051086;28;20025;-72
2020/12/30 11:18:16;;;;;;;8.23;2.17;;;;;;;15.90;59.61;100230.81;5050402;28;20051;-72
2020/12/30 11:20:41;;;;;;;8.73;2.33;;;;;;;15.85;59.07;100212.53;5052979;28;20029;-73
2020/12/30 11:23:07;;;;;;;6.80;2.10;;;;;;;15.99;58.54;100228.31;5053821;28;20025;-71
2020/12/30 11:25:33;;;;;;;6.35;1.92;;;;;;;16.11;59.92;100219.75;5064656;28;20048;-71